Time;durP1;ratioP1;P1;durP2;ratioP2;P2;SDS_P1;SDS_P2;PMS_P1;PMS_P2;Temp;Humidity;BMP_temperature;BMP_pressure;BME280_temperature;BME280_humidity;BME280_pressure;Samples;Min_cycle;Max_cycle;Signal;HPM_P1;HPM_P2
2024/01/19 00:00:35;;;;;;;35.72;14.90;;;;;;;-3.71;86.92;100449.50;6273162;22;20016;-73
2024/01/19 00:03:02;;;;;;;32.70;14.70;;;;;;;-3.72;87.72;100455.72;6273388;22;20389;-73
2024/01/19 00:05:30;;;;;;;30.38;14.40;;;;;;;-3.81;87.45;100451.59;6274118;22;21093;-73
2024/01/19 00:07:57;;;;;;;30.95;13.27;;;;;;;-3.65;86.82;100457.25;6247716;22;20414;-73
2024/01/19 00:10:23;;;;;;;36.50;14.43;;;;;;;-3.71;87.02;100457.44;6272098;22;20078;-74
2024/01/19 00:12:50;;;;;;;28.83;14.57;;;;;;;-3.68;87.23;100463.53;6271849;22;20354;-74
2024/01/19 00:15:17;;;;;;;28.83;13.82;;;;;;;-3.62;86.83;100457.13;6273634;22;20011;-74
2024/01/19 00:17:51;;;;;;;34.65;13.82;;;;;;;-3.81;86.75;100463.97;6274408;22;20473;-73
2024/01/19 00:20:18;;;;;;;28.83;13.43;;;;;;;-3.75;87.56;100467.31;6273854;22;20099;-74
2024/01/19 00:22:44;;;;;;;27.38;13.32;;;;;;;-3.85;86.70;100476.47;6273870;22;20028;-73
2024/01/19 00:25:11;;;;;;;28.58;13.93;;;;;;;-3.82;87.04;100459.59;6274890;22;20085;-74
2024/01/19 00:27:38;;;;;;;31.42;13.82;;;;;;;-3.86;87.35;100472.09;6274001;22;20023;-73
2024/01/19 00:30:05;;;;;;;25.10;12.93;;;;;;;-3.89;87.22;100481.00;6274674;22;20115;-74
2024/01/19 00:32:32;;;;;;;34.63;15.77;;;;;;;-4.01;86.86;100476.09;6274274;22;20026;-73
2024/01/19 00:34:59;;;;;;;27.58;13.93;;;;;;;-3.98;87.83;100476.03;6274600;22;20054;-73
2024/01/19 00:37:26;;;;;;;31.67;13.98;;;;;;;-4.16;87.61;100473.97;6274141;22;20020;-74
2024/01/19 00:39:53;;;;;;;30.58;14.63;;;;;;;-4.03;87.78;100475.28;6274008;22;20082;-74
2024/01/19 00:42:19;;;;;;;37.17;14.45;;;;;;;-3.96;87.27;100475.97;6273497;22;20011;-74
2024/01/19 00:44:46;;;;;;;29.30;13.35;;;;;;;-3.95;87.61;100475.91;6256886;22;20393;-74
2024/01/19 00:47:13;;;;;;;32.30;14.55;;;;;;;-4.04;87.33;100481.50;6248521;22;20106;-74
2024/01/19 00:49:39;;;;;;;32.67;14.27;;;;;;;-4.24;88.05;100470.69;6273348;22;20019;-74
2024/01/19 00:52:08;;;;;;;25.35;13.32;;;;;;;-4.11;88.53;100474.66;6273531;22;20082;-74
2024/01/19 00:54:35;;;;;;;29.20;14.25;;;;;;;-4.07;88.42;100476.31;6273443;22;20020;-73
2024/01/19 00:57:02;;;;;;;24.45;13.07;;;;;;;-3.96;87.73;100481.28;6273174;22;20043;-74
2024/01/19 00:59:28;;;;;;;30.05;14.07;;;;;;;-3.93;86.94;100478.50;6272832;22;20500;-74
2024/01/19 01:01:55;;;;;;;31.98;13.23;;;;;;;-4.09;87.73;100486.06;6272834;22;20024;-73
2024/01/19 01:04:22;;;;;;;33.55;13.65;;;;;;;-4.11;87.87;100485.28;6272617;22;20314;-74
2024/01/19 01:06:48;;;;;;;32.65;14.05;;;;;;;-4.16;87.64;100493.38;6272655;22;20451;-74
2024/01/19 01:09:15;;;;;;;32.80;14.25;;;;;;;-4.23;88.20;100494.47;6272176;22;20054;-74
2024/01/19 01:11:42;;;;;;;24.40;13.80;;;;;;;-4.36;88.67;100492.22;6273196;22;20020;-74
2024/01/19 01:14:09;;;;;;;28.95;14.02;;;;;;;-4.15;88.11;100491.59;6247424;22;20362;-73
2024/01/19 01:16:35;;;;;;;37.88;14.25;;;;;;;-4.27;88.82;100497.25;6272875;22;20617;-73
2024/01/19 01:19:02;;;;;;;32.67;13.68;;;;;;;-4.32;88.25;100499.19;6272779;22;20039;-73
2024/01/19 01:21:29;;;;;;;30.02;14.05;;;;;;;-4.54;88.66;100505.13;6272451;22;20180;-73
2024/01/19 01:23:56;;;;;;;35.05;15.25;;;;;;;-4.63;88.87;100507.16;6272349;22;20074;-73
2024/01/19 01:26:23;;;;;;;35.72;15.43;;;;;;;-4.78;88.51;100509.34;6273320;22;20012;-73
2024/01/19 01:28:50;;;;;;;37.00;16.63;;;;;;;-4.88;88.95;100510.53;6272585;22;20019;-74
2024/01/19 01:31:17;;;;;;;36.38;15.98;;;;;;;-4.92;88.74;100515.94;6272239;22;20019;-73
2024/01/19 01:33:44;;;;;;;39.20;16.08;;;;;;;-5.01;89.12;100522.34;6270813;22;20024;-73
2024/01/19 01:36:11;;;;;;;40.38;16.15;;;;;;;-4.86;88.74;100515.78;6272332;22;20335;-73
2024/01/19 01:38:37;;;;;;;40.47;15.55;;;;;;;-4.91;88.79;100521.22;6272510;22;20027;-73
2024/01/19 01:41:04;;;;;;;33.08;15.50;;;;;;;-4.82;88.46;100522.69;6272571;22;20526;-73
2024/01/19 01:43:30;;;;;;;37.33;15.07;;;;;;;-5.03;88.88;100527.69;6271603;22;20438;-73
2024/01/19 01:45:57;;;;;;;34.92;15.52;;;;;;;-5.11;89.50;100520.88;6272438;22;20032;-73
2024/01/19 01:48:25;;;;;;;35.55;15.40;;;;;;;-5.01;88.26;100522.34;6271280;22;20023;-73
2024/01/19 01:50:55;;;;;;;33.25;15.00;;;;;;;-5.16;88.82;100522.78;6272143;22;20149;-73
2024/01/19 01:53:23;;;;;;;35.08;15.98;;;;;;;-4.96;88.54;100519.59;6272049;22;20358;-73
2024/01/19 01:55:52;;;;;;;36.95;17.15;;;;;;;-5.08;88.30;100526.09;6272218;22;20450;-73
2024/01/19 01:58:18;;;;;;;33.22;15.40;;;;;;;-4.89;88.00;100522.03;6272576;22;20402;-74
2024/01/19 02:00:47;;;;;;;38.80;14.35;;;;;;;-4.71;87.27;100530.34;6272151;22;20016;-73
2024/01/19 02:03:14;;;;;;;29.45;14.98;;;;;;;-4.72;87.01;100524.22;6271971;22;20019;-73
2024/01/19 02:09:27;;;;;;;31.48;13.98;;;;;;;-4.77;86.65;100528.75;6270987;22;20128;-73
2024/01/19 02:11:54;;;;;;;35.33;14.13;;;;;;;-4.83;86.87;100542.13;6271359;22;20105;-73
2024/01/19 02:14:20;;;;;;;29.55;14.60;;;;;;;-4.69;86.33;100534.69;6271613;22;20024;-73
2024/01/19 02:16:47;;;;;;;33.70;14.20;;;;;;;-4.90;86.79;100541.47;6272345;22;20019;-73
2024/01/19 02:19:14;;;;;;;30.10;14.10;;;;;;;-4.96;87.65;100546.03;6272236;22;20073;-73
2024/01/19 02:21:40;;;;;;;27.08;12.88;;;;;;;-4.86;87.12;100548.38;6271079;22;20031;-73
2024/01/19 02:24:14;;;;;;;26.63;12.93;;;;;;;-4.90;87.07;100556.47;6272074;22;20397;-73
2024/01/19 02:26:41;;;;;;;27.02;13.05;;;;;;;-4.99;87.51;100559.38;6270839;22;20015;-73
2024/01/19 02:29:08;;;;;;;29.70;12.90;;;;;;;-4.96;87.54;100561.91;6272027;22;20074;-73
2024/01/19 02:31:34;;;;;;;31.70;13.50;;;;;;;-4.99;87.84;100567.28;6272012;22;20681;-73
2024/01/19 02:34:01;;;;;;;27.08;12.27;;;;;;;-5.04;87.87;100570.03;6271443;22;20039;-73
2024/01/19 02:36:28;;;;;;;28.67;12.52;;;;;;;-4.98;87.99;100566.38;6271169;22;20077;-73
2024/01/19 02:38:55;;;;;;;27.20;11.63;;;;;;;-4.97;87.79;100565.47;6271667;22;20020;-73
2024/01/19 02:41:22;;;;;;;26.58;11.35;;;;;;;-4.90;88.12;100562.63;6271930;22;20023;-73
2024/01/19 02:43:48;;;;;;;27.70;11.48;;;;;;;-4.74;87.08;100563.03;6271692;22;20078;-73
2024/01/19 02:46:15;;;;;;;23.08;10.68;;;;;;;-4.58;86.93;100548.47;6270693;22;20031;-74
2024/01/19 02:48:42;;;;;;;25.33;10.18;;;;;;;-4.64;86.68;100548.63;6270646;22;20023;-73
2024/01/19 02:51:09;;;;;;;21.45;11.07;;;;;;;-4.42;87.20;100540.09;6272994;22;20040;-73
2024/01/19 02:53:35;;;;;;;23.15;10.20;;;;;;;-4.61;86.54;100551.22;6274154;22;20043;-73
2024/01/19 02:56:02;;;;;;;24.77;8.82;;;;;;;-4.46;86.70;100552.53;6272964;22;20019;-73
2024/01/19 02:58:29;;;;;;;26.45;9.23;;;;;;;-4.52;86.25;100547.44;6273192;22;20028;-73
2024/01/19 03:00:56;;;;;;;21.13;8.23;;;;;;;-4.30;85.65;100547.66;6273762;22;20053;-73
2024/01/19 03:03:23;;;;;;;20.17;7.95;;;;;;;-4.08;85.74;100547.84;6273527;22;20020;-73
2024/01/19 03:05:50;;;;;;;20.30;7.47;;;;;;;-4.08;83.73;100546.06;6273729;22;20051;-73
2024/01/19 03:08:16;;;;;;;15.98;6.53;;;;;;;-3.84;83.62;100551.53;6273020;22;20022;-74
2024/01/19 03:10:43;;;;;;;18.05;6.35;;;;;;;-3.88;83.39;100549.00;6274183;22;20026;-73
2024/01/19 03:13:09;;;;;;;16.65;6.25;;;;;;;-4.04;83.05;100558.31;6273704;22;20026;-76
2024/01/19 03:15:36;;;;;;;14.50;5.95;;;;;;;-3.98;83.99;100560.78;6275504;22;20023;-76
2024/01/19 03:18:03;;;;;;;18.33;6.60;;;;;;;-3.90;82.93;100573.78;6274896;22;20385;-76
2024/01/19 03:20:31;;;;;;;17.63;6.57;;;;;;;-3.52;81.61;100561.94;6275219;22;20405;-76
2024/01/19 03:22:57;;;;;;;24.67;6.45;;;;;;;-3.78;81.54;100569.91;6275151;22;20035;-77
2024/01/19 03:25:24;;;;;;;20.40;6.40;;;;;;;-3.71;82.06;100563.47;6274584;22;20015;-76
2024/01/19 03:27:51;;;;;;;19.55;6.57;;;;;;;-3.89;82.01;100568.41;6274338;22;20023;-76
2024/01/19 03:30:17;;;;;;;16.58;5.65;;;;;;;-3.80;82.43;100569.91;6274964;22;20020;-77
2024/01/19 03:32:44;;;;;;;18.33;5.93;;;;;;;-3.78;81.89;100567.25;6247737;22;20308;-76
2024/01/19 03:35:11;;;;;;;13.45;5.15;;;;;;;-3.76;81.95;100570.72;6273924;22;20019;-76
2024/01/19 03:37:38;;;;;;;18.58;6.38;;;;;;;-3.82;81.80;100569.09;6274827;22;20012;-76
2024/01/19 03:40:06;;;;;;;20.15;5.75;;;;;;;-3.69;81.43;100562.50;6274733;22;20020;-76
2024/01/19 03:42:32;;;;;;;23.15;6.15;;;;;;;-3.68;81.85;100569.53;6273895;22;20024;-76
2024/01/19 03:44:59;;;;;;;16.15;5.53;;;;;;;-3.64;81.89;100565.00;6274444;22;25095;-76
2024/01/19 03:47:26;;;;;;;17.85;6.22;;;;;;;-3.47;81.35;100560.00;6273502;22;20334;-76
2024/01/19 03:49:53;;;;;;;18.73;5.65;;;;;;;-3.45;80.10;100566.13;6273943;22;20458;-77
2024/01/19 03:52:20;;;;;;;11.82;4.80;;;;;;;-3.38;80.27;100566.81;6273745;22;20450;-76
2024/01/19 03:54:47;;;;;;;20.40;5.80;;;;;;;-3.44;80.10;100567.84;6274498;22;20051;-76
2024/01/19 03:57:14;;;;;;;22.50;5.45;;;;;;;-3.49;80.79;100567.16;6273888;22;20446;-76
2024/01/19 03:59:41;;;;;;;14.05;5.50;;;;;;;-3.34;80.10;100563.97;6274240;22;20024;-76
2024/01/19 04:02:08;;;;;;;14.95;5.30;;;;;;;-3.15;79.44;100566.00;6274734;22;20028;-76
2024/01/19 04:04:35;;;;;;;18.40;6.60;;;;;;;-3.15;78.74;100564.22;6274474;22;20461;-76
2024/01/19 04:07:02;;;;;;;12.38;5.60;;;;;;;-3.24;79.46;100568.97;6274527;22;20026;-77
2024/01/19 04:09:29;;;;;;;19.52;5.95;;;;;;;-3.13;79.03;100577.47;6274126;22;21069;-77
2024/01/19 04:11:56;;;;;;;17.00;5.43;;;;;;;-3.13;79.59;100577.47;6274681;22;20023;-77
2024/01/19 04:14:23;;;;;;;16.35;5.32;;;;;;;-2.99;78.80;100575.19;6275014;22;20023;-76
2024/01/19 04:16:49;;;;;;;19.67;4.80;;;;;;;-2.96;78.43;100576.84;6274445;22;20418;-76
2024/01/19 04:19:16;;;;;;;15.98;5.43;;;;;;;-2.98;78.24;100581.34;6274420;22;20028;-76
2024/01/19 04:21:43;;;;;;;23.27;5.75;;;;;;;-2.91;78.12;100573.13;6273551;22;20019;-76
2024/01/19 04:24:10;;;;;;;14.75;4.68;;;;;;;-2.96;78.62;100572.41;6274814;22;20085;-76
2024/01/19 04:26:37;;;;;;;15.60;5.50;;;;;;;-3.02;78.11;100583.25;6274562;22;20024;-77
2024/01/19 04:29:04;;;;;;;13.88;5.18;;;;;;;-3.18;78.35;100574.06;6247087;22;20027;-77
2024/01/19 04:31:31;;;;;;;17.50;4.75;;;;;;;-3.02;78.92;100581.47;6246692;22;20047;-76
2024/01/19 04:33:57;;;;;;;18.13;5.45;;;;;;;-3.04;78.31;100593.91;6247319;22;20024;-76
2024/01/19 04:36:24;;;;;;;9.48;4.68;;;;;;;-3.04;78.52;100578.00;6273913;22;20016;-77
2024/01/19 04:38:52;;;;;;;14.02;4.18;;;;;;;-2.86;77.61;100579.16;6273958;22;20020;-77
2024/01/19 04:41:19;;;;;;;14.18;4.20;;;;;;;-2.92;77.78;100575.84;6246594;22;20454;-76
2024/01/19 04:43:45;;;;;;;9.23;4.22;;;;;;;-2.92;77.78;100582.00;6274374;22;20028;-76
2024/01/19 04:46:12;;;;;;;12.07;4.45;;;;;;;-3.15;78.29;100593.41;6246666;22;20099;-76
2024/01/19 04:48:39;;;;;;;11.52;4.43;;;;;;;-3.08;78.64;100597.59;6216768;23;20024;-77
2024/01/19 04:51:06;;;;;;;14.13;4.38;;;;;;;-2.93;77.97;100601.50;6243352;23;20078;-76
2024/01/19 04:53:32;;;;;;;14.65;5.07;;;;;;;-3.07;77.67;100593.13;6243054;23;20027;-76
2024/01/19 04:56:03;;;;;;;14.07;4.47;;;;;;;-3.08;78.46;100592.28;6215943;23;20026;-76
2024/01/19 04:58:29;;;;;;;11.40;4.35;;;;;;;-3.08;78.72;100596.72;6242695;23;20028;-77
2024/01/19 05:00:56;;;;;;;11.68;3.75;;;;;;;-2.96;78.23;100603.38;6243007;23;20024;-77
2024/01/19 05:03:22;;;;;;;13.70;5.07;;;;;;;-2.82;77.37;100604.66;6215441;23;20027;-77
2024/01/19 05:05:49;;;;;;;8.10;2.97;;;;;;;-2.85;77.23;100610.06;6242176;23;20020;-76
2024/01/19 05:08:16;;;;;;;12.93;3.67;;;;;;;-2.96;77.33;100612.22;6242983;23;20127;-76
2024/01/19 05:10:42;;;;;;;15.70;3.83;;;;;;;-3.08;78.63;100600.22;6242761;23;20031;-76
2024/01/19 05:13:09;;;;;;;13.48;3.65;;;;;;;-3.04;78.53;100612.50;6242993;23;20020;-77
2024/01/19 05:15:37;;;;;;;13.85;3.70;;;;;;;-3.08;78.40;100608.19;6216447;23;20069;-76
2024/01/19 05:18:04;;;;;;;9.23;3.80;;;;;;;-2.79;77.47;100604.53;6242234;23;20024;-77
2024/01/19 05:20:31;;;;;;;9.70;3.85;;;;;;;-2.93;77.41;100606.81;6242730;23;20020;-77
2024/01/19 05:22:58;;;;;;;16.50;3.83;;;;;;;-2.83;77.51;100605.56;6242477;23;20020;-77
2024/01/19 05:25:24;;;;;;;8.48;3.08;;;;;;;-2.69;76.63;100614.81;6241932;23;20020;-76
2024/01/19 05:27:53;;;;;;;9.77;3.83;;;;;;;-2.87;77.10;100611.88;6242129;23;20028;-77
2024/01/19 05:30:20;;;;;;;13.43;3.40;;;;;;;-2.89;77.56;100608.44;6242597;23;20020;-77
2024/01/19 05:32:47;;;;;;;16.92;3.60;;;;;;;-2.89;77.67;100613.72;6242632;23;20027;-76
2024/01/19 05:35:14;;;;;;;11.40;3.17;;;;;;;-2.90;76.99;100621.75;6241479;23;20024;-76
2024/01/19 05:37:40;;;;;;;12.07;3.47;;;;;;;-2.80;76.77;100623.16;6242121;23;20328;-78
2024/01/19 05:40:08;;;;;;;10.13;2.78;;;;;;;-2.67;76.55;100628.94;6243341;23;20051;-76
2024/01/19 05:42:34;;;;;;;7.38;3.20;;;;;;;-2.83;77.03;100629.47;6243483;23;20028;-77
2024/01/19 05:45:01;;;;;;;8.88;3.40;;;;;;;-2.69;76.31;100623.66;6216282;23;20024;-75
2024/01/19 05:47:28;;;;;;;9.05;2.60;;;;;;;-2.77;76.47;100623.03;6257111;22;20016;-77
2024/01/19 05:49:54;;;;;;;12.18;3.08;;;;;;;-2.73;76.30;100617.59;6274522;22;20023;-75
2024/01/19 05:52:21;;;;;;;7.72;2.67;;;;;;;-2.64;76.25;100632.34;6273240;22;20020;-77
2024/01/19 05:54:48;;;;;;;9.63;2.67;;;;;;;-2.74;76.52;100631.78;6275670;22;20031;-76
2024/01/19 05:57:14;;;;;;;11.50;3.13;;;;;;;-2.77;76.65;100631.00;6274612;22;20089;-75
2024/01/19 05:59:41;;;;;;;12.63;3.25;;;;;;;-2.65;76.09;100630.59;6273805;22;20026;-75
2024/01/19 06:02:07;;;;;;;11.43;3.30;;;;;;;-2.58;76.32;100634.78;6275205;22;20354;-77
2024/01/19 06:04:37;;;;;;;11.80;3.55;;;;;;;-2.79;76.08;100633.72;6275450;22;20023;-76
2024/01/19 06:07:04;;;;;;;11.40;2.70;;;;;;;-2.78;76.93;100639.91;6274223;22;20026;-76
2024/01/19 06:09:31;;;;;;;7.22;2.42;;;;;;;-2.75;76.49;100643.34;6273808;22;20039;-76
2024/01/19 06:11:58;;;;;;;13.98;3.15;;;;;;;-2.63;75.77;100652.66;6247841;22;20031;-75
2024/01/19 06:14:25;;;;;;;24.88;3.38;;;;;;;-2.69;76.62;100659.94;6272554;22;20044;-76
2024/01/19 06:16:52;;;;;;;14.27;3.10;;;;;;;-2.61;76.66;100649.94;6273606;22;20012;-76
2024/01/19 06:19:19;;;;;;;12.52;3.33;;;;;;;-2.59;76.05;100658.69;6273132;22;20019;-78
2024/01/19 06:21:46;;;;;;;13.43;3.08;;;;;;;-2.52;75.60;100652.25;6273054;22;20051;-76
2024/01/19 06:24:17;;;;;;;10.85;2.65;;;;;;;-2.55;76.25;100660.34;6271660;22;20358;-75
2024/01/19 06:26:44;;;;;;;9.70;3.33;;;;;;;-2.72;76.66;100659.13;6271713;22;20449;-75
2024/01/19 06:29:11;;;;;;;9.02;3.22;;;;;;;-2.68;76.42;100659.03;6272852;22;20090;-75
2024/01/19 06:31:45;;;;;;;23.67;3.80;;;;;;;-2.51;76.19;100661.97;6272609;22;20027;-76
2024/01/19 06:34:12;;;;;;;11.40;3.10;;;;;;;-2.48;76.14;100669.84;6271334;22;20085;-76
2024/01/19 06:36:46;;;;;;;13.23;3.00;;;;;;;-2.44;76.46;100668.78;6272403;22;20060;-76
2024/01/19 06:39:13;;;;;;;8.68;3.75;;;;;;;-2.47;76.14;100682.19;6271608;22;20061;-77
2024/01/19 06:41:44;;;;;;;15.68;3.97;;;;;;;-2.29;76.53;100673.56;6273349;22;20089;-76
2024/01/19 06:44:11;;;;;;;6.32;2.28;;;;;;;-2.40;76.22;100681.03;6273058;22;20449;-76
2024/01/19 06:46:45;;;;;;;7.55;2.83;;;;;;;-2.43;76.29;100686.47;6272811;22;20024;-77
2024/01/19 06:49:13;;;;;;;11.20;2.75;;;;;;;-2.43;76.46;100691.78;6272119;22;20024;-77
2024/01/19 06:51:40;;;;;;;10.57;3.33;;;;;;;-2.36;76.50;100682.66;6272692;22;20095;-77
2024/01/19 06:54:07;;;;;;;23.52;3.88;;;;;;;-2.31;76.41;100686.00;6273134;22;20020;-77
2024/01/19 06:56:34;;;;;;;11.07;3.70;;;;;;;-2.19;75.90;100682.94;6272715;22;20027;-77
2024/01/19 06:59:01;;;;;;;10.40;3.03;;;;;;;-2.10;75.38;100675.56;6273481;22;20327;-77
2024/01/19 07:01:27;;;;;;;13.07;3.70;;;;;;;-2.10;75.33;100683.53;6272603;22;20357;-77
2024/01/19 07:03:54;;;;;;;11.73;3.00;;;;;;;-2.27;76.22;100685.00;6272676;22;20023;-77
2024/01/19 07:06:21;;;;;;;7.07;3.10;;;;;;;-2.26;76.02;100684.06;6272253;22;20020;-76
2024/01/19 07:08:47;;;;;;;9.85;3.47;;;;;;;-2.23;76.13;100689.25;6245121;22;20032;-77
2024/01/19 07:11:14;;;;;;;17.33;3.67;;;;;;;-2.17;76.46;100702.34;6272388;22;20450;-77
2024/01/19 07:13:41;;;;;;;12.77;3.78;;;;;;;-2.10;75.97;100704.78;6272326;22;20023;-77
2024/01/19 07:16:08;;;;;;;15.82;3.75;;;;;;;-2.08;75.92;100716.22;6272822;22;20026;-77
2024/01/19 07:18:38;;;;;;;10.35;4.15;;;;;;;-2.08;75.85;100708.25;6272640;22;20019;-77
2024/01/19 07:21:05;;;;;;;21.40;4.10;;;;;;;-2.17;76.11;100705.00;6272993;22;20019;-77
2024/01/19 07:23:31;;;;;;;14.48;4.10;;;;;;;-2.19;76.72;100714.81;6273146;22;20450;-77
2024/01/19 07:25:58;;;;;;;9.57;3.42;;;;;;;-2.06;76.19;100711.72;6272590;22;20031;-75
2024/01/19 07:28:25;;;;;;;15.13;3.10;;;;;;;-2.03;76.45;100715.09;6244822;22;20504;-77
2024/01/19 07:30:51;;;;;;;11.57;4.13;;;;;;;-2.04;76.44;100721.34;6271841;22;20020;-76
2024/01/19 07:33:20;;;;;;;12.27;4.18;;;;;;;-2.03;76.95;100722.22;6272279;22;20409;-76
2024/01/19 07:35:58;;;;;;;12.70;3.65;;;;;;;-1.98;76.41;100736.22;6271024;22;20027;-75
2024/01/19 07:38:27;;;;;;;29.15;10.23;;;;;;;-1.90;75.77;100724.38;6272894;22;20050;-76
2024/01/19 07:40:54;;;;;;;13.02;4.50;;;;;;;-1.84;75.64;100733.03;6275442;22;20078;-76
2024/01/19 07:43:21;;;;;;;17.10;3.97;;;;;;;-1.86;75.79;100730.44;6275147;22;20078;-75
2024/01/19 07:45:47;;;;;;;13.48;4.80;;;;;;;-1.89;76.33;100735.88;6274685;22;20391;-76
2024/01/19 07:48:14;;;;;;;14.48;4.20;;;;;;;-1.94;76.02;100732.50;6274620;22;20019;-77
2024/01/19 07:50:41;;;;;;;16.38;4.40;;;;;;;-1.90;76.11;100739.47;6273073;22;20324;-75
2024/01/19 07:53:08;;;;;;;15.93;4.03;;;;;;;-1.76;75.69;100731.84;6276146;22;20039;-76
2024/01/19 07:55:34;;;;;;;18.70;6.47;;;;;;;-1.83;75.91;100746.31;6247509;22;20070;-76
2024/01/19 07:58:02;;;;;;;14.52;5.10;;;;;;;-1.71;75.01;100745.84;6247765;22;20019;-77
2024/01/19 08:00:29;;;;;;;13.10;4.88;;;;;;;-1.72;75.17;100754.75;6275133;22;20016;-76
2024/01/19 08:02:56;;;;;;;13.32;5.18;;;;;;;-1.66;75.71;100754.50;6249207;22;20031;-76
2024/01/19 08:05:23;;;;;;;14.45;4.65;;;;;;;-1.71;75.68;100759.13;6275222;22;20020;-76
2024/01/19 08:07:50;;;;;;;12.13;4.55;;;;;;;-1.75;76.09;100767.25;6276239;22;20102;-76
2024/01/19 08:10:18;;;;;;;17.85;5.38;;;;;;;-1.81;75.62;100764.84;6275701;22;20078;-76
2024/01/19 08:12:45;;;;;;;17.40;5.28;;;;;;;-1.73;76.53;100768.09;6274031;22;20450;-76
2024/01/19 08:15:12;;;;;;;14.60;5.57;;;;;;;-1.62;75.98;100761.44;6275076;22;20016;-76
2024/01/19 08:17:38;;;;;;;12.20;5.30;;;;;;;-1.69;76.11;100773.22;6275247;22;20400;-77
2024/01/19 08:20:10;;;;;;;28.42;8.13;;;;;;;-1.56;75.56;100776.28;6274135;22;20020;-76
2024/01/19 08:22:38;;;;;;;9.00;5.25;;;;;;;-1.42;75.15;100773.13;6196261;22;20047;-76
2024/01/19 08:25:06;;;;;;;14.18;5.50;;;;;;;-1.50;75.57;100770.75;6270545;22;20027;-76
2024/01/19 08:53:50;;;;;;;15.45;6.00;;;;;;;-1.23;75.66;100808.75;6240469;22;20042;-72
2024/01/19 08:56:20;;;;;;;20.65;6.30;;;;;;;-1.22;75.48;100807.81;6216465;22;20367;-73
2024/01/19 10:50:34;;;;;;;14.80;5.35;;;;;;;4.34;55.46;100935.78;6252511;22;20026;-73
2024/01/19 10:53:09;;;;;;;10.35;5.18;;;;;;;4.42;55.20;100931.69;6270996;22;20102;-73
2024/01/19 10:55:36;;;;;;;15.57;5.32;;;;;;;4.73;55.17;100937.91;6244806;22;20342;-73
2024/01/19 10:58:03;;;;;;;13.25;4.97;;;;;;;4.76;56.00;100944.91;6270601;22;20032;-70
2024/01/19 11:00:35;;;;;;;11.50;5.20;;;;;;;4.73;55.17;100946.81;6268749;22;20431;-70
2024/01/19 11:03:03;;;;;;;17.67;5.13;;;;;;;4.79;54.98;100955.50;6241497;22;20050;-70
2024/01/19 11:05:32;;;;;;;12.52;5.30;;;;;;;4.55;56.06;100965.88;6269432;22;20028;-70
2024/01/19 11:08:03;;;;;;;14.85;5.55;;;;;;;4.45;55.80;100960.19;6243968;22;20106;-70
2024/01/19 11:10:31;;;;;;;15.90;5.30;;;;;;;4.37;57.18;100962.44;6268735;22;20346;-71
2024/01/19 11:13:00;;;;;;;15.23;5.55;;;;;;;4.38;56.21;100958.81;6271999;22;20032;-70
2024/01/19 11:15:31;;;;;;;10.88;4.90;;;;;;;4.19;56.26;100968.88;6273602;22;20018;-70
2024/01/19 11:17:59;;;;;;;17.75;4.90;;;;;;;3.95;56.66;100966.66;6274534;22;20032;-70
2024/01/19 11:20:29;;;;;;;13.13;5.53;;;;;;;3.80;57.97;100972.88;6273099;22;20031;-70
2024/01/19 11:22:55;;;;;;;10.90;4.65;;;;;;;3.97;57.10;100978.19;6243958;22;20412;-69
2024/01/19 11:25:40;;;;;;;17.48;5.95;;;;;;;3.82;57.95;100987.94;6272496;22;20095;-69
2024/01/19 11:28:24;;;;;;;13.95;5.22;;;;;;;3.95;57.80;100977.41;6245262;22;20015;-69
2024/01/19 11:31:10;;;;;;;15.05;5.28;;;;;;;3.74;57.92;100983.94;6273409;22;20011;-69
2024/01/19 11:33:37;;;;;;;17.10;5.63;;;;;;;3.69;58.61;100988.72;6273559;22;20373;-69
2024/01/19 11:36:04;;;;;;;13.27;5.25;;;;;;;3.51;59.22;100983.41;6273237;22;20049;-69
2024/01/19 11:38:45;;;;;;;11.68;5.10;;;;;;;3.47;59.92;100976.50;6273144;22;20028;-70
2024/01/19 11:41:33;;;;;;;9.57;5.00;;;;;;;3.56;59.20;100973.31;6274179;22;20086;-70
2024/01/19 11:44:03;;;;;;;12.65;5.03;;;;;;;3.40;60.15;100977.78;6273643;22;20039;-69
2024/01/19 11:46:43;;;;;;;16.52;5.60;;;;;;;3.53;59.39;100986.88;6274838;22;20034;-69
2024/01/19 11:49:29;;;;;;;12.27;5.25;;;;;;;3.34;60.01;100975.41;6274971;22;20095;-70
2024/01/19 11:52:03;;;;;;;10.93;4.85;;;;;;;3.23;60.86;100980.50;6274138;22;20020;-71
2024/01/19 11:54:33;;;;;;;14.00;4.68;;;;;;;3.07;61.69;100982.25;6274463;22;20043;-71
2024/01/19 11:57:18;;;;;;;13.20;5.40;;;;;;;3.32;61.54;100985.38;6274262;22;20027;-69
2024/01/19 11:59:46;;;;;;;14.00;5.07;;;;;;;3.54;60.96;100982.38;6272551;22;20323;-70
2024/01/19 12:02:21;;;;;;;13.02;4.47;;;;;;;3.81;59.69;100990.72;6274312;22;20023;-70
2024/01/19 12:04:48;;;;;;;13.95;5.10;;;;;;;3.80;59.38;100983.63;6273062;22;20563;-70
2024/01/19 12:07:24;;;;;;;11.52;4.90;;;;;;;3.73;60.09;100982.22;6273284;22;20016;-70
2024/01/19 12:10:06;;;;;;;15.10;5.30;;;;;;;3.93;59.17;100987.34;6273115;22;20031;-69
2024/01/19 12:12:38;;;;;;;14.02;5.25;;;;;;;3.92;58.95;100985.59;6233559;22;20024;-71
2024/01/19 12:15:10;;;;;;;10.55;4.45;;;;;;;3.99;58.48;101000.41;6269875;22;20027;-68
2024/01/19 12:17:40;;;;;;;11.15;5.05;;;;;;;4.08;58.45;100993.66;6273509;22;20485;-71
2024/01/19 12:20:09;;;;;;;13.93;4.50;;;;;;;4.18;58.64;100994.00;6272534;22;20035;-69
2024/01/19 12:22:37;;;;;;;19.80;4.85;;;;;;;4.29;57.84;100997.78;6267844;22;20031;-69
2024/01/19 12:25:16;;;;;;;14.10;4.18;;;;;;;4.50;57.11;101011.81;6273264;22;20326;-68
2024/01/19 12:27:44;;;;;;;18.23;5.00;;;;;;;4.40;57.32;101016.88;6272271;22;20115;-71
2024/01/19 12:30:15;;;;;;;10.52;4.00;;;;;;;4.44;57.49;101012.16;6272610;22;20023;-71
2024/01/19 12:32:43;;;;;;;15.27;4.47;;;;;;;4.70;56.12;101011.50;6272792;22;20099;-70
2024/01/19 12:35:13;;;;;;;17.13;3.90;;;;;;;4.66;56.06;101020.69;6275011;22;20015;-68
2024/01/19 12:37:40;;;;;;;11.00;4.20;;;;;;;4.98;56.31;101028.72;6273910;22;20458;-70
2024/01/19 12:40:13;;;;;;;17.85;5.28;;;;;;;5.37;54.28;101014.66;6271338;22;20015;-68
2024/01/19 12:42:43;;;;;;;8.80;3.75;;;;;;;5.67;53.28;101017.25;6273421;22;20047;-69
2024/01/19 12:45:15;;;;;;;12.55;4.30;;;;;;;5.97;52.28;101024.31;6274937;22;20067;-69
2024/01/19 12:47:47;;;;;;;10.88;3.90;;;;;;;5.44;52.83;101020.53;6274551;22;20020;-69
2024/01/19 12:50:14;;;;;;;23.33;4.32;;;;;;;5.38;53.57;101026.28;6272469;22;20023;-71
2024/01/19 12:52:50;;;;;;;20.02;4.82;;;;;;;5.09;54.28;101034.31;6273439;22;20012;-68
2024/01/19 12:55:31;;;;;;;19.70;4.20;;;;;;;5.43;53.67;101034.94;6273051;22;20327;-70
2024/01/19 12:57:59;;;;;;;12.57;4.25;;;;;;;5.46;53.33;101042.81;6245627;22;20016;-70
2024/01/19 13:00:27;;;;;;;9.73;3.55;;;;;;;4.98;54.77;101047.53;6266038;22;20349;-71
2024/01/19 13:02:55;;;;;;;17.05;4.18;;;;;;;4.08;57.71;101053.59;6245495;22;20033;-70
2024/01/19 13:05:29;;;;;;;10.02;3.72;;;;;;;3.49;59.74;101055.06;6272672;22;20020;-70
2024/01/19 13:08:01;;;;;;;15.65;4.85;;;;;;;3.08;62.27;101053.66;6271829;22;20070;-68
2024/01/19 13:10:28;;;;;;;14.38;5.28;;;;;;;2.58;63.33;101051.75;6272929;22;20020;-69
2024/01/19 13:13:10;;;;;;;11.25;4.95;;;;;;;2.40;64.10;101056.22;6272601;22;20024;-69
2024/01/19 13:15:37;;;;;;;12.25;3.55;;;;;;;1.97;67.36;101074.31;6272763;22;20524;-69
2024/01/19 13:18:17;;;;;;;13.50;4.55;;;;;;;1.84;67.63;101074.03;6271302;22;20454;-69
2024/01/19 13:20:45;;;;;;;15.75;5.20;;;;;;;1.78;68.25;101076.09;6271885;22;20050;-69
2024/01/19 13:23:12;;;;;;;18.35;4.80;;;;;;;1.67;69.29;101079.28;6273283;22;20066;-70
2024/01/19 13:25:39;;;;;;;20.75;5.47;;;;;;;1.49;69.45;101094.34;6273570;22;20026;-71
2024/01/19 13:28:06;;;;;;;17.25;5.60;;;;;;;1.58;68.79;101093.06;6273544;22;20410;-70
2024/01/19 13:30:34;;;;;;;17.45;5.00;;;;;;;1.41;69.99;101096.47;6274470;22;20083;-70
2024/01/19 13:33:02;;;;;;;20.90;5.50;;;;;;;1.51;69.92;101099.63;6274570;22;20485;-69
2024/01/19 13:35:29;;;;;;;14.82;5.13;;;;;;;1.47;69.95;101100.69;6274411;22;20020;-69
2024/01/19 13:37:56;;;;;;;18.08;6.03;;;;;;;1.47;69.37;101106.03;6274670;22;20035;-70
2024/01/19 13:40:24;;;;;;;21.20;5.57;;;;;;;1.53;68.92;101113.81;6274725;22;20016;-69
2024/01/19 13:42:51;;;;;;;19.27;5.32;;;;;;;1.34;70.33;101110.22;6270237;22;20024;-70